Time,TemperatureF,DewpointF,PressureIn,WindDirection,WindDirectionDegrees,WindSpeedMPH,WindSpeedGustMPH,Humidity,HourlyPrecipIn,Conditions,Clouds,dailyrainin,SolarRadiationWatts/m^2,SoftwareType,DateUTC
2013-06-20 00:01:00,77.0,11.0,-100.00,WNW,302,22.0,41.0,8,0.00,,,0.00,0.000000,,2013-06-20 07:01:00,
2013-06-20 00:12:00,77.0,11.0,-100.00,WNW,302,22.0,41.0,8,0.00,,,0.00,0.000000,,2013-06-20 07:12:00,
2013-06-20 00:53:00,77.0,11.0,-100.00,NW,313,24.0,36.0,8,0.00,,,0.00,0.000000,,2013-06-20 07:53:00,
2013-06-20 01:22:00,77.0,11.0,-100.00,NW,313,24.0,36.0,8,0.00,,,0.00,0.000000,,2013-06-20 08:22:00,
2013-06-20 01:53:00,73.0,8.0,-100.00,NW,310,24.0,32.0,8,-99.99,,,0.00,0.000000,,2013-06-20 08:53:00,
2013-06-20 02:01:00,73.0,8.0,-100.00,NW,310,24.0,32.0,8,-99.99,,,0.00,0.000000,,2013-06-20 09:01:00,
2013-06-20 02:11:00,73.0,8.0,-100.00,NW,310,24.0,32.0,8,-99.99,,,0.00,0.000000,,2013-06-20 09:11:00,
2013-06-20 02:22:00,73.0,8.0,-100.00,NW,310,24.0,32.0,8,-99.99,,,0.00,0.000000,,2013-06-20 09:22:00,
2013-06-20 02:52:00,72.0,7.0,-100.00,NW,314,16.0,31.0,8,-99.99,,,0.00,0.000000,,2013-06-20 09:52:00,
2013-06-20 03:01:00,72.0,7.0,-100.00,NW,314,16.0,31.0,8,-99.99,,,0.00,0.000000,,2013-06-20 10:01:00,
2013-06-20 03:11:00,72.0,7.0,-100.00,NW,314,16.0,31.0,8,-99.99,,,0.00,0.000000,,2013-06-20 10:11:00,
2013-06-20 03:22:00,72.0,7.0,-100.00,NW,314,16.0,31.0,8,-99.99,,,0.00,0.000000,,2013-06-20 10:22:00,
2013-06-20 03:53:00,65.0,16.0,-100.00,South,178,1.0,18.0,15,-99.99,,,0.00,0.000000,,2013-06-20 10:53:00,
2013-06-20 04:02:00,65.0,16.0,-100.00,South,178,1.0,18.0,15,-99.99,,,0.00,0.000000,,2013-06-20 11:02:00,
2013-06-20 04:11:00,65.0,16.0,-100.00,South,178,1.0,18.0,15,-99.99,,,0.00,0.000000,,2013-06-20 11:11:00,
2013-06-20 04:22:00,65.0,16.0,-100.00,South,178,1.0,18.0,15,-99.99,,,0.00,0.000000,,2013-06-20 11:22:00,
2013-06-20 04:53:00,69.0,10.0,-100.00,NNW,334,11.0,25.0,10,0.00,,,0.00,0.000000,,2013-06-20 11:53:00,
2013-06-20 05:02:00,69.0,10.0,-100.00,NNW,334,11.0,25.0,10,0.00,,,0.00,0.000000,,2013-06-20 12:02:00,
2013-06-20 05:11:00,69.0,10.0,-100.00,NNW,334,11.0,25.0,10,0.00,,,0.00,0.000000,,2013-06-20 12:11:00,
2013-06-20 05:22:00,69.0,10.0,-100.00,NNW,334,11.0,25.0,10,0.00,,,0.00,0.000000,,2013-06-20 12:22:00,
2013-06-20 05:53:00,67.0,9.0,-100.00,South,176,13.0,28.0,10,-99.99,,,0.00,0.000000,,2013-06-20 12:53:00,
2013-06-20 06:02:00,67.0,9.0,-100.00,South,176,13.0,28.0,10,-99.99,,,0.00,0.000000,,2013-06-20 13:02:00,
2013-06-20 06:11:00,67.0,9.0,-100.00,South,176,13.0,28.0,10,-99.99,,,0.00,0.000000,,2013-06-20 13:11:00,
2013-06-20 06:22:00,67.0,9.0,-100.00,South,176,13.0,28.0,10,-99.99,,,0.00,0.000000,,2013-06-20 13:22:00,
2013-06-20 06:53:00,68.0,12.0,-100.00,NNE,18,12.0,21.0,11,0.00,,,0.00,46.000000,,2013-06-20 13:53:00,
2013-06-20 07:01:00,68.0,12.0,-100.00,NNE,18,12.0,21.0,11,0.00,,,0.00,46.000000,,2013-06-20 14:01:00,
2013-06-20 07:11:00,68.0,12.0,-100.00,NNE,18,12.0,21.0,11,0.00,,,0.00,46.000000,,2013-06-20 14:11:00,
2013-06-20 07:22:00,68.0,12.0,-100.00,NNE,18,12.0,21.0,11,0.00,,,0.00,46.000000,,2013-06-20 14:22:00,
2013-06-20 07:53:00,68.0,15.0,-100.00,NNE,21,18.0,26.0,13,0.00,,,0.00,271.000000,,2013-06-20 14:53:00,
2013-06-20 08:01:00,68.0,15.0,-100.00,NNE,21,18.0,26.0,13,0.00,,,0.00,271.000000,,2013-06-20 15:01:00,
2013-06-20 08:11:00,68.0,15.0,-100.00,NNE,21,18.0,26.0,13,0.00,,,0.00,271.000000,,2013-06-20 15:11:00,
2013-06-20 08:53:00,72.0,18.0,-100.00,NNE,26,18.0,28.0,13,0.00,,,0.00,529.000000,,2013-06-20 15:53:00,
2013-06-20 09:01:00,72.0,18.0,-100.00,NNE,26,18.0,28.0,13,0.00,,,0.00,529.000000,,2013-06-20 16:01:00,
2013-06-20 09:11:00,72.0,18.0,-100.00,NNE,26,18.0,28.0,13,0.00,,,0.00,529.000000,,2013-06-20 16:11:00,
2013-06-20 09:22:00,72.0,18.0,-100.00,NNE,26,18.0,28.0,13,0.00,,,0.00,529.000000,,2013-06-20 16:22:00,
2013-06-20 09:52:00,74.0,18.0,-100.00,NE,35,19.0,28.0,12,0.00,,,0.00,783.000000,,2013-06-20 16:52:00,
2013-06-20 10:01:00,74.0,18.0,-100.00,NE,35,19.0,28.0,12,0.00,,,0.00,783.000000,,2013-06-20 17:01:00,
2013-06-20 10:11:00,74.0,18.0,-100.00,NE,35,19.0,28.0,12,0.00,,,0.00,783.000000,,2013-06-20 17:11:00,
2013-06-20 10:21:00,74.0,18.0,-100.00,NE,35,19.0,28.0,12,0.00,,,0.00,783.000000,,2013-06-20 17:21:00,
2013-06-20 10:53:00,76.0,16.0,-100.00,NE,39,15.0,27.0,10,0.00,,,0.00,1004.000000,,2013-06-20 17:53:00,
2013-06-20 11:01:00,76.0,16.0,-100.00,NE,39,15.0,27.0,10,0.00,,,0.00,1004.000000,,2013-06-20 18:01:00,
2013-06-20 11:11:00,76.0,16.0,-100.00,NE,39,15.0,27.0,10,0.00,,,0.00,1004.000000,,2013-06-20 18:11:00,
2013-06-20 11:22:00,76.0,16.0,-100.00,NE,39,15.0,27.0,10,0.00,,,0.00,1004.000000,,2013-06-20 18:22:00,
2013-06-20 11:53:00,82.0,15.0,-100.00,SSE,148,4.0,20.0,8,0.00,,,0.00,1171.000000,,2013-06-20 18:53:00,
2013-06-20 12:01:00,82.0,15.0,-100.00,SSE,148,4.0,20.0,8,0.00,,,0.00,1171.000000,,2013-06-20 19:01:00,
2013-06-20 12:11:00,82.0,15.0,-100.00,SSE,148,4.0,20.0,8,0.00,,,0.00,1171.000000,,2013-06-20 19:11:00,
2013-06-20 12:22:00,82.0,15.0,-100.00,SSE,148,4.0,20.0,8,0.00,,,0.00,1171.000000,,2013-06-20 19:22:00,
2013-06-20 12:52:00,82.0,15.0,-100.00,SSE,165,12.0,24.0,8,0.00,,,0.00,1264.000000,,2013-06-20 19:52:00,
2013-06-20 13:02:00,82.0,15.0,-100.00,SSE,165,12.0,24.0,8,0.00,,,0.00,1264.000000,,2013-06-20 20:02:00,
2013-06-20 13:11:00,82.0,15.0,-100.00,SSE,165,12.0,24.0,8,0.00,,,0.00,1264.000000,,2013-06-20 20:11:00,
2013-06-20 13:22:00,82.0,15.0,-100.00,SSE,165,12.0,24.0,8,0.00,,,0.00,1264.000000,,2013-06-20 20:22:00,
2013-06-20 13:52:00,84.0,13.0,-100.00,South,169,15.0,26.0,7,0.00,,,0.00,1292.000000,,2013-06-20 20:52:00,
2013-06-20 14:01:00,84.0,13.0,-100.00,South,169,15.0,26.0,7,0.00,,,0.00,1292.000000,,2013-06-20 21:01:00,
2013-06-20 14:11:00,84.0,13.0,-100.00,South,169,15.0,26.0,7,0.00,,,0.00,1292.000000,,2013-06-20 21:11:00,
2013-06-20 15:12:00,86.0,11.0,-100.00,SSE,167,15.0,29.0,6,0.00,,,0.00,1264.000000,,2013-06-20 22:12:00,
2013-06-20 17:11:00,85.0,22.0,-100.00,SW,225,18.0,25.0,10,0.00,,,0.00,987.000000,,2013-06-21 00:11:00,
2013-06-20 21:11:00,76.0,23.0,-100.00,NNW,330,30.0,40.0,14,0.00,,,0.00,12.000000,,2013-06-21 04:11:00,